sensor_id;sensor_type;location;lat;lon;timestamp;P1;durP1;ratioP1;P2;durP2;ratioP2
4980;SDS011;2507;50.392;7.482;2023-10-08T00:02:15;10.13;;;6.80;;
4980;SDS011;2507;50.392;7.482;2023-10-08T00:04:47;6.97;;;6.23;;
4980;SDS011;2507;50.392;7.482;2023-10-08T00:07:13;6.80;;;6.20;;
4980;SDS011;2507;50.392;7.482;2023-10-08T00:09:38;7.20;;;6.20;;
4980;SDS011;2507;50.392;7.482;2023-10-08T00:12:04;8.90;;;6.27;;
4980;SDS011;2507;50.392;7.482;2023-10-08T00:14:30;8.07;;;5.73;;
4980;SDS011;2507;50.392;7.482;2023-10-08T00:16:57;8.43;;;7.37;;
4980;SDS011;2507;50.392;7.482;2023-10-08T00:19:23;13.83;;;7.03;;
4980;SDS011;2507;50.392;7.482;2023-10-08T00:21:49;7.50;;;6.70;;
4980;SDS011;2507;50.392;7.482;2023-10-08T00:24:18;8.80;;;7.17;;
4980;SDS011;2507;50.392;7.482;2023-10-08T00:26:43;8.53;;;7.10;;
4980;SDS011;2507;50.392;7.482;2023-10-08T00:29:08;8.37;;;6.90;;
4980;SDS011;2507;50.392;7.482;2023-10-08T00:32:00;8.27;;;6.47;;
4980;SDS011;2507;50.392;7.482;2023-10-08T00:34:36;8.80;;;6.73;;
4980;SDS011;2507;50.392;7.482;2023-10-08T00:37:06;7.53;;;6.63;;
4980;SDS011;2507;50.392;7.482;2023-10-08T00:39:34;6.80;;;6.20;;
4980;SDS011;2507;50.392;7.482;2023-10-08T00:42:04;7.40;;;6.70;;
4980;SDS011;2507;50.392;7.482;2023-10-08T00:44:32;7.73;;;6.87;;
4980;SDS011;2507;50.392;7.482;2023-10-08T00:47:02;7.97;;;6.53;;
4980;SDS011;2507;50.392;7.482;2023-10-08T00:49:30;9.67;;;6.50;;
4980;SDS011;2507;50.392;7.482;2023-10-08T00:52:05;10.03;;;6.50;;
4980;SDS011;2507;50.392;7.482;2023-10-08T00:54:37;8.30;;;6.10;;
4980;SDS011;2507;50.392;7.482;2023-10-08T00:57:26;9.20;;;6.83;;
4980;SDS011;2507;50.392;7.482;2023-10-08T00:59:54;8.73;;;6.40;;
4980;SDS011;2507;50.392;7.482;2023-10-08T01:02:27;7.27;;;6.40;;
4980;SDS011;2507;50.392;7.482;2023-10-08T01:05:01;7.70;;;5.67;;
4980;SDS011;2507;50.392;7.482;2023-10-08T01:07:27;12.50;;;6.27;;
4980;SDS011;2507;50.392;7.482;2023-10-08T01:09:55;8.60;;;6.63;;
4980;SDS011;2507;50.392;7.482;2023-10-08T01:12:35;6.50;;;5.90;;
4980;SDS011;2507;50.392;7.482;2023-10-08T01:15:09;9.17;;;5.87;;
4980;SDS011;2507;50.392;7.482;2023-10-08T01:17:43;7.20;;;6.00;;
4980;SDS011;2507;50.392;7.482;2023-10-08T01:20:23;8.93;;;6.27;;
4980;SDS011;2507;50.392;7.482;2023-10-08T01:23:09;6.40;;;5.70;;
4980;SDS011;2507;50.392;7.482;2023-10-08T01:25:42;7.10;;;6.00;;
4980;SDS011;2507;50.392;7.482;2023-10-08T01:28:15;6.67;;;5.90;;
4980;SDS011;2507;50.392;7.482;2023-10-08T01:30:59;7.37;;;6.47;;
4980;SDS011;2507;50.392;7.482;2023-10-08T01:33:29;8.13;;;6.50;;
4980;SDS011;2507;50.392;7.482;2023-10-08T01:35:55;8.80;;;6.30;;
4980;SDS011;2507;50.392;7.482;2023-10-08T01:38:28;6.80;;;6.07;;
4980;SDS011;2507;50.392;7.482;2023-10-08T01:40:53;11.80;;;6.43;;
4980;SDS011;2507;50.392;7.482;2023-10-08T01:43:21;9.23;;;7.07;;
4980;SDS011;2507;50.392;7.482;2023-10-08T01:45:46;6.87;;;6.27;;
4980;SDS011;2507;50.392;7.482;2023-10-08T01:48:16;7.03;;;6.33;;
4980;SDS011;2507;50.392;7.482;2023-10-08T01:50:48;6.53;;;5.73;;
4980;SDS011;2507;50.392;7.482;2023-10-08T01:53:14;7.90;;;7.10;;
4980;SDS011;2507;50.392;7.482;2023-10-08T01:55:40;9.13;;;6.90;;
4980;SDS011;2507;50.392;7.482;2023-10-08T01:58:16;7.50;;;6.80;;
4980;SDS011;2507;50.392;7.482;2023-10-08T02:00:43;7.80;;;7.10;;
4980;SDS011;2507;50.392;7.482;2023-10-08T02:03:10;7.53;;;6.73;;
4980;SDS011;2507;50.392;7.482;2023-10-08T02:05:38;9.60;;;6.57;;
4980;SDS011;2507;50.392;7.482;2023-10-08T02:08:07;7.80;;;6.47;;
4980;SDS011;2507;50.392;7.482;2023-10-08T02:10:32;8.67;;;6.90;;
4980;SDS011;2507;50.392;7.482;2023-10-08T02:12:58;7.17;;;6.33;;
4980;SDS011;2507;50.392;7.482;2023-10-08T02:15:24;7.13;;;6.53;;
4980;SDS011;2507;50.392;7.482;2023-10-08T02:17:51;8.07;;;6.83;;
4980;SDS011;2507;50.392;7.482;2023-10-08T02:20:16;9.07;;;6.43;;
4980;SDS011;2507;50.392;7.482;2023-10-08T02:22:42;10.53;;;6.63;;
4980;SDS011;2507;50.392;7.482;2023-10-08T02:25:07;7.10;;;6.40;;
4980;SDS011;2507;50.392;7.482;2023-10-08T02:27:36;7.33;;;6.57;;
4980;SDS011;2507;50.392;7.482;2023-10-08T02:30:02;7.27;;;6.57;;
4980;SDS011;2507;50.392;7.482;2023-10-08T02:32:31;10.83;;;6.27;;
4980;SDS011;2507;50.392;7.482;2023-10-08T02:34:57;7.30;;;6.57;;
4980;SDS011;2507;50.392;7.482;2023-10-08T02:37:22;8.37;;;7.10;;
4980;SDS011;2507;50.392;7.482;2023-10-08T02:39:47;8.90;;;6.80;;
4980;SDS011;2507;50.392;7.482;2023-10-08T02:42:13;9.10;;;6.77;;
4980;SDS011;2507;50.392;7.482;2023-10-08T02:44:39;8.80;;;7.77;;
4980;SDS011;2507;50.392;7.482;2023-10-08T02:47:08;11.83;;;7.50;;
4980;SDS011;2507;50.392;7.482;2023-10-08T02:49:36;7.60;;;6.63;;
4980;SDS011;2507;50.392;7.482;2023-10-08T02:52:05;6.97;;;6.37;;
4980;SDS011;2507;50.392;7.482;2023-10-08T02:54:31;13.17;;;6.60;;
4980;SDS011;2507;50.392;7.482;2023-10-08T02:56:57;7.50;;;6.77;;
4980;SDS011;2507;50.392;7.482;2023-10-08T02:59:28;8.17;;;7.37;;
4980;SDS011;2507;50.392;7.482;2023-10-08T03:02:03;9.07;;;7.20;;
4980;SDS011;2507;50.392;7.482;2023-10-08T03:04:29;9.10;;;6.10;;
4980;SDS011;2507;50.392;7.482;2023-10-08T03:06:54;8.10;;;7.27;;
4980;SDS011;2507;50.392;7.482;2023-10-08T03:09:20;11.20;;;6.50;;
4980;SDS011;2507;50.392;7.482;2023-10-08T03:11:49;8.50;;;6.60;;
4980;SDS011;2507;50.392;7.482;2023-10-08T03:14:16;8.03;;;7.23;;
4980;SDS011;2507;50.392;7.482;2023-10-08T03:16:51;12.07;;;7.90;;
4980;SDS011;2507;50.392;7.482;2023-10-08T03:19:18;9.30;;;8.40;;
4980;SDS011;2507;50.392;7.482;2023-10-08T03:21:45;7.93;;;7.07;;
4980;SDS011;2507;50.392;7.482;2023-10-08T03:24:16;7.90;;;7.10;;
4980;SDS011;2507;50.392;7.482;2023-10-08T03:26:58;8.73;;;7.07;;
4980;SDS011;2507;50.392;7.482;2023-10-08T03:29:38;9.90;;;7.90;;
4980;SDS011;2507;50.392;7.482;2023-10-08T03:32:07;8.07;;;7.27;;
4980;SDS011;2507;50.392;7.482;2023-10-08T03:34:38;10.33;;;7.37;;
4980;SDS011;2507;50.392;7.482;2023-10-08T03:37:07;10.37;;;8.27;;
4980;SDS011;2507;50.392;7.482;2023-10-08T03:39:33;8.23;;;6.50;;
4980;SDS011;2507;50.392;7.482;2023-10-08T03:42:19;9.20;;;7.90;;
4980;SDS011;2507;50.392;7.482;2023-10-08T03:44:48;7.03;;;6.43;;
4980;SDS011;2507;50.392;7.482;2023-10-08T03:47:20;8.57;;;6.90;;
4980;SDS011;2507;50.392;7.482;2023-10-08T03:49:48;12.17;;;7.90;;
4980;SDS011;2507;50.392;7.482;2023-10-08T03:52:16;7.47;;;6.53;;
4980;SDS011;2507;50.392;7.482;2023-10-08T03:54:42;10.07;;;7.60;;
4980;SDS011;2507;50.392;7.482;2023-10-08T03:57:14;8.47;;;6.73;;
4980;SDS011;2507;50.392;7.482;2023-10-08T03:59:43;11.30;;;8.30;;
4980;SDS011;2507;50.392;7.482;2023-10-08T04:02:08;8.73;;;6.90;;
4980;SDS011;2507;50.392;7.482;2023-10-08T04:04:59;14.47;;;6.90;;
4980;SDS011;2507;50.392;7.482;2023-10-08T04:07:42;10.20;;;7.23;;
4980;SDS011;2507;50.392;7.482;2023-10-08T04:10:27;7.50;;;6.70;;
4980;SDS011;2507;50.392;7.482;2023-10-08T04:13:04;9.70;;;7.30;;
4980;SDS011;2507;50.392;7.482;2023-10-08T04:15:33;8.47;;;7.10;;
4980;SDS011;2507;50.392;7.482;2023-10-08T04:17:59;8.90;;;7.00;;
4980;SDS011;2507;50.392;7.482;2023-10-08T04:20:27;6.93;;;6.23;;
4980;SDS011;2507;50.392;7.482;2023-10-08T04:22:58;8.47;;;6.97;;
4980;SDS011;2507;50.392;7.482;2023-10-08T04:25:25;8.07;;;5.97;;
4980;SDS011;2507;50.392;7.482;2023-10-08T04:27:53;7.73;;;6.77;;
4980;SDS011;2507;50.392;7.482;2023-10-08T04:30:19;8.77;;;7.73;;
4980;SDS011;2507;50.392;7.482;2023-10-08T04:32:46;7.73;;;7.03;;
4980;SDS011;2507;50.392;7.482;2023-10-08T04:35:11;7.90;;;7.20;;
4980;SDS011;2507;50.392;7.482;2023-10-08T04:37:40;13.50;;;7.30;;
4980;SDS011;2507;50.392;7.482;2023-10-08T04:40:06;7.20;;;6.40;;
4980;SDS011;2507;50.392;7.482;2023-10-08T04:42:42;8.97;;;7.70;;
4980;SDS011;2507;50.392;7.482;2023-10-08T04:45:10;10.90;;;6.83;;
4980;SDS011;2507;50.392;7.482;2023-10-08T04:47:39;7.00;;;6.30;;
4980;SDS011;2507;50.392;7.482;2023-10-08T04:50:07;8.50;;;7.00;;
4980;SDS011;2507;50.392;7.482;2023-10-08T04:52:42;10.10;;;6.80;;
4980;SDS011;2507;50.392;7.482;2023-10-08T04:55:23;6.70;;;5.80;;
4980;SDS011;2507;50.392;7.482;2023-10-08T04:57:53;9.23;;;6.73;;
4980;SDS011;2507;50.392;7.482;2023-10-08T05:00:19;9.13;;;6.10;;
4980;SDS011;2507;50.392;7.482;2023-10-08T05:03:04;6.93;;;6.30;;
4980;SDS011;2507;50.392;7.482;2023-10-08T05:05:38;7.70;;;6.77;;
4980;SDS011;2507;50.392;7.482;2023-10-08T05:08:19;13.00;;;7.77;;
4980;SDS011;2507;50.392;7.482;2023-10-08T05:10:57;7.23;;;6.53;;
4980;SDS011;2507;50.392;7.482;2023-10-08T05:13:27;11.23;;;6.70;;
4980;SDS011;2507;50.392;7.482;2023-10-08T05:15:58;8.77;;;7.00;;
4980;SDS011;2507;50.392;7.482;2023-10-08T05:18:23;7.03;;;6.10;;
4980;SDS011;2507;50.392;7.482;2023-10-08T05:20:49;6.70;;;6.00;;
4980;SDS011;2507;50.392;7.482;2023-10-08T05:23:17;7.30;;;6.60;;
4980;SDS011;2507;50.392;7.482;2023-10-08T05:25:49;9.23;;;6.30;;
4980;SDS011;2507;50.392;7.482;2023-10-08T05:28:26;9.03;;;6.60;;
4980;SDS011;2507;50.392;7.482;2023-10-08T05:30:52;7.40;;;6.60;;
4980;SDS011;2507;50.392;7.482;2023-10-08T05:33:36;10.80;;;6.37;;
4980;SDS011;2507;50.392;7.482;2023-10-08T05:36:34;8.53;;;6.33;;
4980;SDS011;2507;50.392;7.482;2023-10-08T05:39:14;7.50;;;6.70;;
4980;SDS011;2507;50.392;7.482;2023-10-08T05:41:49;8.47;;;6.80;;
4980;SDS011;2507;50.392;7.482;2023-10-08T05:44:30;7.80;;;6.13;;
4980;SDS011;2507;50.392;7.482;2023-10-08T05:47:04;10.23;;;6.97;;
4980;SDS011;2507;50.392;7.482;2023-10-08T05:49:52;7.87;;;7.07;;
4980;SDS011;2507;50.392;7.482;2023-10-08T05:52:34;9.07;;;7.30;;
4980;SDS011;2507;50.392;7.482;2023-10-08T05:55:18;8.67;;;7.77;;
4980;SDS011;2507;50.392;7.482;2023-10-08T05:58:01;11.30;;;8.20;;
4980;SDS011;2507;50.392;7.482;2023-10-08T06:00:44;10.67;;;8.60;;
4980;SDS011;2507;50.392;7.482;2023-10-08T06:03:29;11.40;;;8.00;;
4980;SDS011;2507;50.392;7.482;2023-10-08T06:06:01;10.93;;;8.87;;
4980;SDS011;2507;50.392;7.482;2023-10-08T06:08:36;10.93;;;7.37;;
4980;SDS011;2507;50.392;7.482;2023-10-08T06:11:20;11.10;;;8.30;;
4980;SDS011;2507;50.392;7.482;2023-10-08T06:14:04;9.93;;;7.20;;
4980;SDS011;2507;50.392;7.482;2023-10-08T06:16:45;9.17;;;7.37;;
4980;SDS011;2507;50.392;7.482;2023-10-08T06:19:12;13.20;;;7.93;;
4980;SDS011;2507;50.392;7.482;2023-10-08T06:21:40;10.80;;;7.47;;
4980;SDS011;2507;50.392;7.482;2023-10-08T06:24:07;10.40;;;7.33;;
4980;SDS011;2507;50.392;7.482;2023-10-08T06:26:41;10.93;;;7.47;;
4980;SDS011;2507;50.392;7.482;2023-10-08T06:29:13;8.60;;;7.70;;
4980;SDS011;2507;50.392;7.482;2023-10-08T06:31:52;8.30;;;7.47;;
4980;SDS011;2507;50.392;7.482;2023-10-08T06:34:20;8.70;;;7.73;;
4980;SDS011;2507;50.392;7.482;2023-10-08T06:36:47;9.47;;;8.07;;
4980;SDS011;2507;50.392;7.482;2023-10-08T06:39:22;7.37;;;6.67;;
4980;SDS011;2507;50.392;7.482;2023-10-08T06:42:09;7.30;;;6.60;;
4980;SDS011;2507;50.392;7.482;2023-10-08T06:44:35;10.27;;;8.20;;
4980;SDS011;2507;50.392;7.482;2023-10-08T06:47:02;9.37;;;7.73;;
4980;SDS011;2507;50.392;7.482;2023-10-08T06:49:34;9.37;;;8.03;;
4980;SDS011;2507;50.392;7.482;2023-10-08T06:52:00;11.27;;;8.97;;
4980;SDS011;2507;50.392;7.482;2023-10-08T06:54:26;12.93;;;9.20;;
4980;SDS011;2507;50.392;7.482;2023-10-08T06:56:55;10.53;;;8.57;;
4980;SDS011;2507;50.392;7.482;2023-10-08T06:59:20;11.90;;;9.37;;
4980;SDS011;2507;50.392;7.482;2023-10-08T07:01:50;10.60;;;9.50;;
4980;SDS011;2507;50.392;7.482;2023-10-08T07:04:16;10.43;;;8.97;;
4980;SDS011;2507;50.392;7.482;2023-10-08T07:06:44;10.00;;;8.13;;
4980;SDS011;2507;50.392;7.482;2023-10-08T07:09:11;14.70;;;8.80;;
4980;SDS011;2507;50.392;7.482;2023-10-08T07:11:56;11.07;;;8.03;;
4980;SDS011;2507;50.392;7.482;2023-10-08T07:14:22;11.60;;;9.40;;
4980;SDS011;2507;50.392;7.482;2023-10-08T07:16:54;8.90;;;8.10;;
4980;SDS011;2507;50.392;7.482;2023-10-08T07:19:24;9.90;;;8.83;;
4980;SDS011;2507;50.392;7.482;2023-10-08T07:21:58;8.90;;;8.10;;
4980;SDS011;2507;50.392;7.482;2023-10-08T07:24:43;11.60;;;8.23;;
4980;SDS011;2507;50.392;7.482;2023-10-08T07:27:15;9.43;;;8.30;;
4980;SDS011;2507;50.392;7.482;2023-10-08T07:29:40;11.07;;;8.57;;
4980;SDS011;2507;50.392;7.482;2023-10-08T07:32:06;9.80;;;7.90;;
4980;SDS011;2507;50.392;7.482;2023-10-08T07:34:37;9.30;;;7.93;;
4980;SDS011;2507;50.392;7.482;2023-10-08T07:37:04;11.30;;;8.83;;
4980;SDS011;2507;50.392;7.482;2023-10-08T07:39:31;9.20;;;7.20;;
4980;SDS011;2507;50.392;7.482;2023-10-08T07:41:56;9.00;;;7.77;;
4980;SDS011;2507;50.392;7.482;2023-10-08T07:44:24;8.63;;;7.73;;
4980;SDS011;2507;50.392;7.482;2023-10-08T07:46:50;10.83;;;7.60;;
4980;SDS011;2507;50.392;7.482;2023-10-08T07:49:17;9.57;;;8.00;;
4980;SDS011;2507;50.392;7.482;2023-10-08T07:51:43;11.00;;;8.23;;
4980;SDS011;2507;50.392;7.482;2023-10-08T07:56:47;12.07;;;7.67;;
4980;SDS011;2507;50.392;7.482;2023-10-08T07:59:13;9.27;;;7.83;;
4980;SDS011;2507;50.392;7.482;2023-10-08T08:01:41;10.03;;;8.37;;
4980;SDS011;2507;50.392;7.482;2023-10-08T08:04:07;11.60;;;9.00;;
4980;SDS011;2507;50.392;7.482;2023-10-08T08:06:46;9.23;;;8.30;;
4980;SDS011;2507;50.392;7.482;2023-10-08T08:09:14;12.70;;;7.97;;
4980;SDS011;2507;50.392;7.482;2023-10-08T08:11:44;10.00;;;8.40;;
4980;SDS011;2507;50.392;7.482;2023-10-08T08:14:11;11.53;;;8.63;;
4980;SDS011;2507;50.392;7.482;2023-10-08T08:16:41;9.40;;;7.53;;
4980;SDS011;2507;50.392;7.482;2023-10-08T08:19:13;9.70;;;7.87;;
4980;SDS011;2507;50.392;7.482;2023-10-08T08:21:40;10.97;;;7.90;;
4980;SDS011;2507;50.392;7.482;2023-10-08T08:24:10;10.57;;;8.67;;
4980;SDS011;2507;50.392;7.482;2023-10-08T08:26:38;8.27;;;7.30;;
4980;SDS011;2507;50.392;7.482;2023-10-08T08:29:26;9.10;;;7.53;;
4980;SDS011;2507;50.392;7.482;2023-10-08T08:31:53;11.80;;;8.73;;
4980;SDS011;2507;50.392;7.482;2023-10-08T08:34:21;10.17;;;7.93;;
4980;SDS011;2507;50.392;7.482;2023-10-08T08:36:48;10.53;;;7.33;;
4980;SDS011;2507;50.392;7.482;2023-10-08T08:39:17;8.03;;;6.90;;
4980;SDS011;2507;50.392;7.482;2023-10-08T08:42:00;11.60;;;7.30;;
4980;SDS011;2507;50.392;7.482;2023-10-08T08:44:27;10.43;;;6.83;;
4980;SDS011;2507;50.392;7.482;2023-10-08T08:46:54;9.50;;;6.40;;
4980;SDS011;2507;50.392;7.482;2023-10-08T08:49:23;7.83;;;7.13;;
4980;SDS011;2507;50.392;7.482;2023-10-08T08:51:49;7.20;;;6.50;;
4980;SDS011;2507;50.392;7.482;2023-10-08T08:54:18;9.17;;;7.17;;
4980;SDS011;2507;50.392;7.482;2023-10-08T08:56:44;13.73;;;7.30;;
4980;SDS011;2507;50.392;7.482;2023-10-08T08:59:10;6.70;;;6.00;;
4980;SDS011;2507;50.392;7.482;2023-10-08T09:01:38;7.90;;;6.30;;
4980;SDS011;2507;50.392;7.482;2023-10-08T09:04:05;7.80;;;5.83;;
4980;SDS011;2507;50.392;7.482;2023-10-08T09:06:34;10.60;;;5.27;;
4980;SDS011;2507;50.392;7.482;2023-10-08T09:09:03;6.73;;;5.93;;
4980;SDS011;2507;50.392;7.482;2023-10-08T09:11:46;11.27;;;6.20;;
4980;SDS011;2507;50.392;7.482;2023-10-08T09:14:12;11.97;;;6.50;;
4980;SDS011;2507;50.392;7.482;2023-10-08T09:16:37;7.50;;;5.93;;
4980;SDS011;2507;50.392;7.482;2023-10-08T09:19:03;10.77;;;7.27;;
4980;SDS011;2507;50.392;7.482;2023-10-08T09:21:29;6.47;;;5.87;;
4980;SDS011;2507;50.392;7.482;2023-10-08T09:23:55;8.67;;;6.10;;
4980;SDS011;2507;50.392;7.482;2023-10-08T09:26:24;12.80;;;6.70;;
4980;SDS011;2507;50.392;7.482;2023-10-08T09:28:50;10.20;;;6.83;;
4980;SDS011;2507;50.392;7.482;2023-10-08T09:31:17;8.73;;;6.33;;
4980;SDS011;2507;50.392;7.482;2023-10-08T09:33:42;9.30;;;5.90;;
4980;SDS011;2507;50.392;7.482;2023-10-08T09:36:09;7.30;;;6.50;;
4980;SDS011;2507;50.392;7.482;2023-10-08T09:38:40;6.20;;;5.57;;
4980;SDS011;2507;50.392;7.482;2023-10-08T09:41:08;8.10;;;5.90;;
4980;SDS011;2507;50.392;7.482;2023-10-08T09:43:34;7.97;;;5.90;;
4980;SDS011;2507;50.392;7.482;2023-10-08T09:46:03;6.27;;;5.70;;
4980;SDS011;2507;50.392;7.482;2023-10-08T09:48:51;6.70;;;5.70;;
4980;SDS011;2507;50.392;7.482;2023-10-08T09:51:19;6.87;;;5.97;;
4980;SDS011;2507;50.392;7.482;2023-10-08T09:56:23;14.83;;;8.30;;
4980;SDS011;2507;50.392;7.482;2023-10-08T09:58:51;13.07;;;7.13;;
4980;SDS011;2507;50.392;7.482;2023-10-08T10:01:18;11.90;;;7.40;;
4980;SDS011;2507;50.392;7.482;2023-10-08T10:03:45;7.07;;;6.47;;
4980;SDS011;2507;50.392;7.482;2023-10-08T10:06:11;8.43;;;6.77;;
4980;SDS011;2507;50.392;7.482;2023-10-08T10:08:39;13.13;;;7.10;;
4980;SDS011;2507;50.392;7.482;2023-10-08T10:11:06;11.43;;;6.60;;
4980;SDS011;2507;50.392;7.482;2023-10-08T10:13:42;8.07;;;6.40;;
4980;SDS011;2507;50.392;7.482;2023-10-08T10:16:13;9.67;;;6.53;;
4980;SDS011;2507;50.392;7.482;2023-10-08T10:18:43;10.03;;;6.37;;
4980;SDS011;2507;50.392;7.482;2023-10-08T10:26:05;5.97;;;5.37;;
4980;SDS011;2507;50.392;7.482;2023-10-08T10:29:17;8.43;;;5.90;;
4980;SDS011;2507;50.392;7.482;2023-10-08T10:31:37;6.60;;;5.93;;
4980;SDS011;2507;50.392;7.482;2023-10-08T10:34:06;6.23;;;5.60;;
4980;SDS011;2507;50.392;7.482;2023-10-08T10:36:38;9.77;;;6.40;;
4980;SDS011;2507;50.392;7.482;2023-10-08T10:39:07;7.30;;;6.00;;
4980;SDS011;2507;50.392;7.482;2023-10-08T10:41:41;7.57;;;5.60;;
4980;SDS011;2507;50.392;7.482;2023-10-08T10:44:11;7.50;;;5.77;;
4980;SDS011;2507;50.392;7.482;2023-10-08T10:46:45;11.40;;;5.50;;
4980;SDS011;2507;50.392;7.482;2023-10-08T10:49:20;6.93;;;5.67;;
4980;SDS011;2507;50.392;7.482;2023-10-08T10:51:50;7.27;;;5.50;;
4980;SDS011;2507;50.392;7.482;2023-10-08T10:54:24;7.40;;;5.50;;
4980;SDS011;2507;50.392;7.482;2023-10-08T10:56:51;11.43;;;5.93;;
4980;SDS011;2507;50.392;7.482;2023-10-08T10:59:37;9.23;;;4.77;;
4980;SDS011;2507;50.392;7.482;2023-10-08T11:02:05;7.00;;;5.57;;
4980;SDS011;2507;50.392;7.482;2023-10-08T11:04:45;10.60;;;5.60;;
4980;SDS011;2507;50.392;7.482;2023-10-08T11:07:15;13.23;;;6.30;;
4980;SDS011;2507;50.392;7.482;2023-10-08T11:09:42;8.03;;;5.63;;
4980;SDS011;2507;50.392;7.482;2023-10-08T11:12:09;7.10;;;5.53;;
4980;SDS011;2507;50.392;7.482;2023-10-08T11:14:40;14.43;;;6.73;;
4980;SDS011;2507;50.392;7.482;2023-10-08T11:17:13;8.23;;;5.30;;
4980;SDS011;2507;50.392;7.482;2023-10-08T11:19:41;9.40;;;5.83;;
4980;SDS011;2507;50.392;7.482;2023-10-08T11:22:10;6.10;;;4.83;;
4980;SDS011;2507;50.392;7.482;2023-10-08T11:24:41;9.93;;;5.60;;
4980;SDS011;2507;50.392;7.482;2023-10-08T11:27:09;8.70;;;5.20;;
4980;SDS011;2507;50.392;7.482;2023-10-08T11:29:42;9.67;;;5.50;;
4980;SDS011;2507;50.392;7.482;2023-10-08T11:32:09;10.00;;;6.03;;
4980;SDS011;2507;50.392;7.482;2023-10-08T11:34:38;12.37;;;5.47;;
4980;SDS011;2507;50.392;7.482;2023-10-08T11:37:04;10.57;;;5.53;;
4980;SDS011;2507;50.392;7.482;2023-10-08T11:39:39;7.80;;;5.00;;
4980;SDS011;2507;50.392;7.482;2023-10-08T11:42:10;10.30;;;5.23;;
4980;SDS011;2507;50.392;7.482;2023-10-08T11:44:54;12.77;;;6.07;;
4980;SDS011;2507;50.392;7.482;2023-10-08T11:47:20;12.53;;;6.20;;
4980;SDS011;2507;50.392;7.482;2023-10-08T11:49:50;8.53;;;5.67;;
4980;SDS011;2507;50.392;7.482;2023-10-08T11:52:19;10.80;;;5.37;;
4980;SDS011;2507;50.392;7.482;2023-10-08T11:54:48;8.27;;;5.47;;
4980;SDS011;2507;50.392;7.482;2023-10-08T11:57:14;7.97;;;5.40;;
4980;SDS011;2507;50.392;7.482;2023-10-08T11:59:44;7.10;;;5.30;;
4980;SDS011;2507;50.392;7.482;2023-10-08T12:02:11;11.30;;;5.47;;
4980;SDS011;2507;50.392;7.482;2023-10-08T12:04:41;12.77;;;4.87;;
4980;SDS011;2507;50.392;7.482;2023-10-08T12:07:07;8.80;;;5.53;;
4980;SDS011;2507;50.392;7.482;2023-10-08T12:09:32;5.37;;;4.70;;
4980;SDS011;2507;50.392;7.482;2023-10-08T12:12:02;10.23;;;5.47;;
4980;SDS011;2507;50.392;7.482;2023-10-08T12:14:34;9.73;;;5.73;;
4980;SDS011;2507;50.392;7.482;2023-10-08T12:16:59;9.30;;;5.57;;
4980;SDS011;2507;50.392;7.482;2023-10-08T12:19:25;12.13;;;5.80;;
4980;SDS011;2507;50.392;7.482;2023-10-08T12:21:51;18.23;;;6.17;;
4980;SDS011;2507;50.392;7.482;2023-10-08T12:24:18;7.77;;;5.70;;
4980;SDS011;2507;50.392;7.482;2023-10-08T12:26:44;7.07;;;5.30;;
4980;SDS011;2507;50.392;7.482;2023-10-08T12:29:14;10.60;;;5.50;;
4980;SDS011;2507;50.392;7.482;2023-10-08T12:31:42;13.00;;;5.67;;
4980;SDS011;2507;50.392;7.482;2023-10-08T12:34:12;13.13;;;6.37;;
4980;SDS011;2507;50.392;7.482;2023-10-08T12:36:37;16.67;;;6.13;;
4980;SDS011;2507;50.392;7.482;2023-10-08T12:39:03;12.10;;;5.37;;
4980;SDS011;2507;50.392;7.482;2023-10-08T12:41:39;10.17;;;5.67;;
4980;SDS011;2507;50.392;7.482;2023-10-08T12:44:05;14.50;;;6.00;;
4980;SDS011;2507;50.392;7.482;2023-10-08T12:46:33;12.00;;;6.17;;
4980;SDS011;2507;50.392;7.482;2023-10-08T12:48:59;10.10;;;5.43;;
4980;SDS011;2507;50.392;7.482;2023-10-08T12:51:26;11.70;;;5.40;;
4980;SDS011;2507;50.392;7.482;2023-10-08T12:53:57;7.90;;;5.53;;
4980;SDS011;2507;50.392;7.482;2023-10-08T12:56:31;12.37;;;5.23;;
4980;SDS011;2507;50.392;7.482;2023-10-08T12:59:01;13.43;;;5.33;;
4980;SDS011;2507;50.392;7.482;2023-10-08T13:01:32;8.77;;;5.23;;
4980;SDS011;2507;50.392;7.482;2023-10-08T13:03:57;7.87;;;5.30;;
4980;SDS011;2507;50.392;7.482;2023-10-08T13:06:26;9.10;;;5.70;;
4980;SDS011;2507;50.392;7.482;2023-10-08T13:08:56;8.20;;;5.23;;
4980;SDS011;2507;50.392;7.482;2023-10-08T13:11:23;9.70;;;5.63;;
4980;SDS011;2507;50.392;7.482;2023-10-08T13:13:50;8.30;;;4.80;;
4980;SDS011;2507;50.392;7.482;2023-10-08T13:16:21;9.60;;;5.20;;
4980;SDS011;2507;50.392;7.482;2023-10-08T13:18:48;9.80;;;5.20;;
4980;SDS011;2507;50.392;7.482;2023-10-08T13:21:13;12.17;;;5.70;;
4980;SDS011;2507;50.392;7.482;2023-10-08T13:23:39;10.23;;;5.37;;
4980;SDS011;2507;50.392;7.482;2023-10-08T13:26:05;11.17;;;5.53;;
4980;SDS011;2507;50.392;7.482;2023-10-08T13:28:32;11.30;;;5.10;;
4980;SDS011;2507;50.392;7.482;2023-10-08T13:31:01;8.17;;;4.97;;
4980;SDS011;2507;50.392;7.482;2023-10-08T13:33:39;9.47;;;4.53;;
4980;SDS011;2507;50.392;7.482;2023-10-08T13:36:06;6.23;;;4.83;;
4980;SDS011;2507;50.392;7.482;2023-10-08T13:38:35;7.30;;;4.80;;
4980;SDS011;2507;50.392;7.482;2023-10-08T13:41:02;11.17;;;5.90;;
4980;SDS011;2507;50.392;7.482;2023-10-08T13:43:34;9.77;;;5.20;;
4980;SDS011;2507;50.392;7.482;2023-10-08T13:46:03;9.00;;;5.53;;
4980;SDS011;2507;50.392;7.482;2023-10-08T13:48:31;14.93;;;6.80;;
4980;SDS011;2507;50.392;7.482;2023-10-08T13:51:01;9.10;;;5.37;;
4980;SDS011;2507;50.392;7.482;2023-10-08T13:53:33;9.70;;;5.73;;
4980;SDS011;2507;50.392;7.482;2023-10-08T13:56:01;11.80;;;5.20;;
4980;SDS011;2507;50.392;7.482;2023-10-08T13:58:29;11.80;;;5.00;;
4980;SDS011;2507;50.392;7.482;2023-10-08T14:00:56;7.07;;;4.70;;
4980;SDS011;2507;50.392;7.482;2023-10-08T14:03:43;8.00;;;4.63;;
4980;SDS011;2507;50.392;7.482;2023-10-08T14:06:08;8.70;;;5.10;;
4980;SDS011;2507;50.392;7.482;2023-10-08T14:08:34;10.40;;;5.47;;
4980;SDS011;2507;50.392;7.482;2023-10-08T14:11:00;7.47;;;4.63;;
4980;SDS011;2507;50.392;7.482;2023-10-08T14:13:30;7.60;;;4.90;;
4980;SDS011;2507;50.392;7.482;2023-10-08T14:15:57;5.77;;;4.27;;
4980;SDS011;2507;50.392;7.482;2023-10-08T14:18:23;6.70;;;4.73;;
4980;SDS011;2507;50.392;7.482;2023-10-08T14:20:54;8.70;;;4.80;;
4980;SDS011;2507;50.392;7.482;2023-10-08T14:23:21;12.00;;;5.83;;
4980;SDS011;2507;50.392;7.482;2023-10-08T14:25:49;7.33;;;5.37;;
4980;SDS011;2507;50.392;7.482;2023-10-08T14:28:16;9.63;;;5.17;;
4980;SDS011;2507;50.392;7.482;2023-10-08T14:30:49;8.40;;;5.10;;
4980;SDS011;2507;50.392;7.482;2023-10-08T14:33:20;5.53;;;4.30;;
4980;SDS011;2507;50.392;7.482;2023-10-08T14:35:50;9.73;;;5.13;;
4980;SDS011;2507;50.392;7.482;2023-10-08T14:38:34;8.50;;;5.13;;
4980;SDS011;2507;50.392;7.482;2023-10-08T14:41:18;11.10;;;5.10;;
4980;SDS011;2507;50.392;7.482;2023-10-08T14:44:02;10.20;;;5.70;;
4980;SDS011;2507;50.392;7.482;2023-10-08T14:46:29;7.00;;;4.73;;
4980;SDS011;2507;50.392;7.482;2023-10-08T14:48:57;9.10;;;5.57;;
4980;SDS011;2507;50.392;7.482;2023-10-08T14:51:24;7.57;;;4.87;;
4980;SDS011;2507;50.392;7.482;2023-10-08T14:53:49;11.13;;;5.50;;
4980;SDS011;2507;50.392;7.482;2023-10-08T14:56:15;8.33;;;5.53;;
4980;SDS011;2507;50.392;7.482;2023-10-08T14:58:43;13.77;;;5.67;;
4980;SDS011;2507;50.392;7.482;2023-10-08T15:01:08;8.63;;;4.87;;
4980;SDS011;2507;50.392;7.482;2023-10-08T15:03:37;8.10;;;6.53;;
4980;SDS011;2507;50.392;7.482;2023-10-08T15:06:02;9.63;;;5.90;;
4980;SDS011;2507;50.392;7.482;2023-10-08T15:08:29;11.57;;;5.73;;
4980;SDS011;2507;50.392;7.482;2023-10-08T15:10:57;9.10;;;6.10;;
4980;SDS011;2507;50.392;7.482;2023-10-08T15:13:23;8.37;;;5.20;;
4980;SDS011;2507;50.392;7.482;2023-10-08T15:15:50;7.40;;;4.93;;
4980;SDS011;2507;50.392;7.482;2023-10-08T15:18:15;12.00;;;5.27;;
4980;SDS011;2507;50.392;7.482;2023-10-08T15:20:43;8.40;;;5.50;;
4980;SDS011;2507;50.392;7.482;2023-10-08T15:23:08;6.43;;;4.63;;
4980;SDS011;2507;50.392;7.482;2023-10-08T15:25:36;12.70;;;5.70;;
4980;SDS011;2507;50.392;7.482;2023-10-08T15:28:02;11.03;;;5.90;;
4980;SDS011;2507;50.392;7.482;2023-10-08T15:30:28;5.60;;;4.40;;
4980;SDS011;2507;50.392;7.482;2023-10-08T15:32:53;9.10;;;6.30;;
4980;SDS011;2507;50.392;7.482;2023-10-08T15:35:19;8.17;;;5.77;;
4980;SDS011;2507;50.392;7.482;2023-10-08T15:37:45;9.17;;;5.27;;
4980;SDS011;2507;50.392;7.482;2023-10-08T15:40:12;10.23;;;5.23;;